Time;durP1;ratioP1;P1;durP2;ratioP2;P2;SDS_P1;SDS_P2;PMS_P1;PMS_P2;Temp;Humidity;BMP_temperature;BMP_pressure;BME280_temperature;BME280_humidity;BME280_pressure;Samples;Min_cycle;Max_cycle;Signal;HPM_P1;HPM_P2
2021/03/15 00:00:15;;;;;;;3.22;1.00;;;7.80;77.70;;;;;;4977446;28;20031;-96
2021/03/15 00:02:42;;;;;;;1.58;1.10;;;7.80;77.70;;;;;;4989924;28;20026;-95
2021/03/15 00:05:10;;;;;;;1.70;1.00;;;7.80;77.70;;;;;;4997295;28;20065;-95
2021/03/15 00:07:35;;;;;;;1.50;0.95;;;7.80;77.70;;;;;;4997410;28;20081;-95
2021/03/15 00:10:03;;;;;;;3.05;1.30;;;7.80;77.60;;;;;;4997479;28;20022;-95
2021/03/15 00:12:28;;;;;;;1.88;1.25;;;7.80;77.70;;;;;;4995521;28;20025;-95
2021/03/15 00:14:54;;;;;;;1.35;1.00;;;7.80;77.70;;;;;;4996047;28;20030;-96
2021/03/15 00:17:19;;;;;;;4.47;1.48;;;7.80;77.80;;;;;;4997336;28;20093;-95
2021/03/15 00:19:45;;;;;;;3.25;1.90;;;7.80;78.00;;;;;;4997333;28;20150;-96
2021/03/15 00:22:10;;;;;;;4.80;2.05;;;7.70;78.20;;;;;;4996583;28;20098;-95
2021/03/15 00:24:36;;;;;;;2.15;1.63;;;7.70;78.30;;;;;;4996903;28;20634;-96
2021/03/15 00:27:02;;;;;;;2.05;1.42;;;7.70;78.40;;;;;;5001008;28;20050;-96
2021/03/15 00:29:28;;;;;;;1.00;0.80;;;7.70;78.40;;;;;;5005752;28;20034;-96
2021/03/15 00:31:54;;;;;;;2.72;1.92;;;7.70;78.30;;;;;;5015141;28;20026;-96
2021/03/15 00:34:19;;;;;;;3.70;2.17;;;7.70;78.40;;;;;;5012934;28;20027;-96
2021/03/15 00:36:45;;;;;;;2.75;1.70;;;7.70;78.50;;;;;;5008173;28;20091;-96
2021/03/15 00:39:13;;;;;;;3.80;1.73;;;7.60;78.60;;;;;;5013508;28;20033;-96
2021/03/15 00:41:39;;;;;;;1.48;1.30;;;7.60;78.70;;;;;;5003730;28;20090;-96
2021/03/15 00:44:05;;;;;;;2.17;1.48;;;7.60;78.70;;;;;;5000820;28;20066;-96
2021/03/15 00:46:31;;;;;;;1.73;1.30;;;7.60;78.70;;;;;;4998921;28;20018;-96
2021/03/15 00:48:56;;;;;;;2.00;1.30;;;7.60;78.60;;;;;;4998366;28;20019;-95
2021/03/15 00:51:22;;;;;;;1.88;1.48;;;7.60;78.80;;;;;;4977137;28;20027;-94
2021/03/15 00:53:48;;;;;;;2.60;1.60;;;7.60;78.80;;;;;;4987622;28;20113;-96
2021/03/15 00:56:14;;;;;;;1.23;1.00;;;7.60;78.70;;;;;;4997716;28;20547;-93
2021/03/15 00:58:43;;;;;;;2.22;1.20;;;7.50;78.70;;;;;;4995482;28;20031;-95
2021/03/15 01:01:08;;;;;;;2.60;1.60;;;7.60;78.80;;;;;;4996118;28;20050;-94
2021/03/15 01:03:34;;;;;;;2.38;1.40;;;7.60;78.90;;;;;;4995831;28;20510;-95
2021/03/15 01:06:00;;;;;;;2.60;1.58;;;7.60;78.90;;;;;;4995499;28;20466;-94
2021/03/15 01:08:25;;;;;;;3.63;1.58;;;7.50;78.80;;;;;;4995828;28;20457;-95
2021/03/15 01:10:51;;;;;;;3.58;2.00;;;7.60;79.00;;;;;;4993924;28;20022;-93
2021/03/15 01:13:17;;;;;;;2.65;1.88;;;7.60;79.10;;;;;;4995262;28;20028;-93
2021/03/15 01:15:43;;;;;;;2.17;1.73;;;7.60;79.20;;;;;;4995649;28;20050;-92
2021/03/15 01:18:09;;;;;;;2.45;1.50;;;7.50;79.10;;;;;;4995632;28;20069;-95
2021/03/15 01:20:35;;;;;;;3.17;1.80;;;7.50;79.10;;;;;;4993916;28;20030;-95
2021/03/15 01:23:02;;;;;;;2.53;1.70;;;7.50;79.10;;;;;;4995356;28;20018;-95
2021/03/15 01:25:30;;;;;;;1.88;1.30;;;7.60;79.20;;;;;;4994296;28;20129;-96
2021/03/15 01:27:55;;;;;;;3.35;1.58;;;7.60;79.10;;;;;;4995081;28;20062;-95
2021/03/15 01:30:27;;;;;;;1.98;1.48;;;7.60;79.10;;;;;;4995168;28;20030;-96
2021/03/15 01:32:53;;;;;;;1.58;1.45;;;7.60;79.10;;;;;;4995046;28;20114;-95
2021/03/15 01:35:18;;;;;;;2.08;1.50;;;7.60;79.00;;;;;;4995026;28;20051;-95
2021/03/15 01:37:44;;;;;;;2.78;1.77;;;7.70;79.10;;;;;;4995457;28;20051;-92
2021/03/15 01:40:10;;;;;;;2.33;1.60;;;7.70;79.00;;;;;;4994851;28;20097;-95
2021/03/15 01:42:35;;;;;;;2.53;1.50;;;7.70;79.10;;;;;;4993117;28;20038;-95
2021/03/15 01:45:02;;;;;;;1.88;1.42;;;7.70;79.10;;;;;;4993786;28;20034;-95
2021/03/15 01:47:27;;;;;;;3.30;1.67;;;7.70;79.10;;;;;;4995172;28;20436;-95
2021/03/15 01:49:53;;;;;;;2.17;1.50;;;7.70;79.10;;;;;;4995051;28;20030;-94
2021/03/15 01:52:20;;;;;;;3.30;1.58;;;7.70;79.10;;;;;;4994757;28;20026;-94
2021/03/15 01:54:47;;;;;;;2.00;1.50;;;7.70;79.10;;;;;;4994378;28;20018;-94
2021/03/15 01:57:12;;;;;;;2.88;1.50;;;7.70;79.00;;;;;;4994445;28;20030;-96
2021/03/15 01:59:38;;;;;;;1.95;1.30;;;7.80;79.00;;;;;;4994696;28;20022;-93
2021/03/15 02:02:04;;;;;;;2.10;1.45;;;7.70;78.90;;;;;;4993059;28;20029;-93
2021/03/15 02:04:29;;;;;;;2.30;1.50;;;7.70;79.00;;;;;;4993746;28;20041;-93
2021/03/15 02:06:55;;;;;;;3.55;1.50;;;7.70;79.00;;;;;;4995229;28;20022;-96
2021/03/15 02:09:21;;;;;;;2.67;1.70;;;7.70;79.10;;;;;;4998805;28;20027;-96
2021/03/15 02:12:23;;;;;;;2.97;2.00;;;7.60;79.20;;;;;;4995382;28;20058;-95
2021/03/15 02:15:00;;;;;;;4.00;2.17;;;7.60;79.50;;;;;;4994436;28;20026;-95
2021/03/15 02:18:03;;;;;;;3.45;2.00;;;7.50;79.70;;;;;;4994642;28;20031;-94
2021/03/15 02:20:50;;;;;;;1.67;1.27;;;7.40;80.50;;;;;;4963474;28;20065;-96
2021/03/15 02:23:28;;;;;;;1.92;1.17;;;7.40;79.90;;;;;;4980154;28;20036;-93
2021/03/15 02:26:00;;;;;;;2.05;1.15;;;7.40;79.90;;;;;;4994013;28;20038;-94
2021/03/15 02:28:43;;;;;;;1.97;1.50;;;7.40;79.80;;;;;;4993763;28;20033;-93
2021/03/15 02:31:37;;;;;;;2.00;1.23;;;7.50;79.90;;;;;;4992528;28;20037;-92
2021/03/15 02:34:15;;;;;;;2.47;1.25;;;7.50;79.90;;;;;;4993657;28;20041;-94
2021/03/15 02:36:43;;;;;;;2.17;1.40;;;7.50;80.10;;;;;;4992185;28;20109;-93
2021/03/15 02:39:21;;;;;;;1.50;1.40;;;7.40;79.80;;;;;;4993700;28;20629;-91
2021/03/15 02:41:49;;;;;;;2.42;1.33;;;7.40;79.90;;;;;;4992730;28;20026;-92
2021/03/15 02:44:16;;;;;;;1.30;1.20;;;7.40;80.00;;;;;;4993464;28;20038;-92
2021/03/15 02:46:45;;;;;;;1.35;1.20;;;7.30;80.00;;;;;;4993458;28;20113;-92
2021/03/15 02:49:14;;;;;;;1.40;1.27;;;7.40;80.10;;;;;;4993535;28;20101;-92
2021/03/15 02:51:41;;;;;;;1.60;1.50;;;7.40;80.10;;;;;;4993724;28;20026;-93
2021/03/15 02:54:10;;;;;;;1.90;1.13;;;7.40;80.10;;;;;;4992681;28;20042;-92
2021/03/15 02:56:41;;;;;;;1.45;1.23;;;7.40;80.00;;;;;;4993196;28;20035;-91
2021/03/15 02:59:09;;;;;;;1.30;1.20;;;7.40;79.90;;;;;;4993993;28;20022;-91
2021/03/15 03:01:40;;;;;;;1.20;1.02;;;7.30;79.90;;;;;;4993312;28;20022;-93
2021/03/15 03:04:08;;;;;;;2.45;1.20;;;7.40;80.00;;;;;;4991641;28;20065;-92
2021/03/15 03:06:37;;;;;;;1.40;1.10;;;7.40;80.60;;;;;;4976172;28;20065;-94
2021/03/15 03:09:06;;;;;;;1.58;1.10;;;7.40;79.90;;;;;;4994156;28;20019;-96
2021/03/15 03:11:32;;;;;;;1.30;1.00;;;7.40;79.90;;;;;;4995192;28;20034;-94
2021/03/15 03:13:59;;;;;;;2.28;1.00;;;7.40;79.80;;;;;;4996500;28;20381;-96
2021/03/15 03:16:33;;;;;;;1.20;1.02;;;7.40;79.80;;;;;;4980580;28;20625;-95
2021/03/15 03:19:00;;;;;;;1.30;1.20;;;7.40;79.80;;;;;;4993957;28;20137;-96
2021/03/15 03:21:26;;;;;;;1.10;1.00;;;7.50;79.90;;;;;;4994403;28;20092;-94
2021/03/15 03:23:58;;;;;;;1.77;1.10;;;7.50;79.80;;;;;;4995357;28;20082;-96
2021/03/15 03:36:42;;;;;;;1.38;1.20;;;7.50;79.70;;;;;;4976905;28;20507;-96
2021/03/15 03:41:47;;;;;;;1.60;1.30;;;7.60;79.80;;;;;;5508736;23;19922;-96
2021/03/15 03:44:14;;;;;;;2.33;1.40;;;7.60;80.30;;;;;;4988253;28;20030;-96
2021/03/15 03:49:31;;;;;;;2.80;1.98;;;7.60;79.80;;;;;;5387682;23;20510;-96
2021/03/15 03:59:49;;;;;;;3.13;2.40;;;7.50;80.10;;;;;;5369547;23;20542;-96
2021/03/15 04:02:16;;;;;;;2.97;1.83;;;7.40;80.40;;;;;;4954772;29;20066;-96
2021/03/15 04:14:58;;;;;;;4.13;2.67;;;7.40;80.80;;;;;;4968574;28;20383;-94
2021/03/15 04:17:29;;;;;;;4.93;2.58;;;7.40;80.90;;;;;;4977093;28;20166;-94
2021/03/15 04:20:00;;;;;;;4.80;2.28;;;7.30;81.00;;;;;;4979549;28;20433;-96
2021/03/15 04:22:28;;;;;;;5.85;3.35;;;7.30;81.10;;;;;;5006075;28;20037;-94
2021/03/15 04:24:56;;;;;;;3.80;2.33;;;7.30;81.20;;;;;;4998203;28;20114;-94
2021/03/15 04:27:23;;;;;;;6.32;3.10;;;7.30;81.20;;;;;;4996932;28;20030;-94
2021/03/15 04:29:49;;;;;;;7.10;2.83;;;7.30;81.30;;;;;;4979027;28;20022;-95
2021/03/15 04:32:16;;;;;;;5.65;2.85;;;7.30;81.40;;;;;;4996289;28;20022;-96
2021/03/15 04:34:43;;;;;;;5.93;2.63;;;7.30;81.30;;;;;;4996674;28;20385;-96
2021/03/15 04:37:10;;;;;;;4.63;2.50;;;7.30;81.30;;;;;;4996514;28;20465;-96
2021/03/15 04:39:37;;;;;;;4.13;2.80;;;7.40;81.30;;;;;;4979018;28;20026;-96
2021/03/15 04:42:05;;;;;;;4.32;2.53;;;7.40;81.40;;;;;;4995926;28;20525;-96
2021/03/15 04:44:37;;;;;;;4.78;2.88;;;7.30;81.30;;;;;;4996092;28;20042;-96
2021/03/15 04:47:04;;;;;;;4.43;2.42;;;7.30;81.50;;;;;;4979132;28;20052;-94
2021/03/15 04:49:31;;;;;;;5.63;2.67;;;7.30;81.60;;;;;;4995599;28;20469;-93
2021/03/15 04:51:58;;;;;;;5.22;2.78;;;7.30;81.70;;;;;;4995029;28;20080;-93
2021/03/15 04:54:23;;;;;;;3.95;2.30;;;7.30;81.70;;;;;;4977867;28;20106;-92
2021/03/15 04:56:52;;;;;;;4.82;2.50;;;7.30;81.70;;;;;;4978161;28;20026;-92
2021/03/15 04:59:19;;;;;;;9.05;3.40;;;7.30;81.80;;;;;;4978097;28;20030;-91
2021/03/15 05:01:47;;;;;;;6.20;3.00;;;7.30;81.90;;;;;;4976683;28;20366;-91
2021/03/15 05:04:13;;;;;;;4.18;2.53;;;7.20;81.80;;;;;;4994634;28;20042;-91
2021/03/15 05:06:42;;;;;;;4.85;2.33;;;7.20;81.90;;;;;;4977388;28;20083;-88
2021/03/15 05:09:08;;;;;;;5.50;2.40;;;7.20;81.80;;;;;;4977475;28;20038;-89
2021/03/15 05:11:37;;;;;;;4.22;2.42;;;7.30;81.90;;;;;;4977439;28;20034;-90
2021/03/15 05:14:04;;;;;;;3.80;1.77;;;7.30;81.70;;;;;;4993858;28;20023;-90
2021/03/15 05:16:35;;;;;;;5.10;2.50;;;7.30;81.60;;;;;;4993489;28;20030;-89
2021/03/15 05:19:02;;;;;;;4.78;2.60;;;7.30;81.60;;;;;;4994966;28;20038;-90
2021/03/15 05:21:29;;;;;;;4.47;2.28;;;7.30;81.50;;;;;;4976959;28;20050;-91
2021/03/15 05:23:56;;;;;;;5.13;2.60;;;7.30;81.50;;;;;;4994402;28;20500;-91
2021/03/15 05:26:23;;;;;;;3.55;1.98;;;7.30;81.40;;;;;;4994311;28;20031;-91
2021/03/15 05:28:49;;;;;;;3.67;2.05;;;7.30;81.30;;;;;;4994509;28;20025;-94
2021/03/15 05:31:17;;;;;;;2.80;2.05;;;7.30;81.30;;;;;;4994893;28;20117;-91
2021/03/15 05:33:45;;;;;;;4.03;2.58;;;7.30;81.40;;;;;;4974921;28;20027;-92
2021/03/15 05:36:13;;;;;;;3.78;2.40;;;7.40;81.30;;;;;;4971739;28;20022;-95
2021/03/15 05:38:39;;;;;;;4.18;2.25;;;7.30;81.30;;;;;;4980721;28;20053;-95
2021/03/15 05:41:09;;;;;;;4.32;2.38;;;7.30;81.30;;;;;;4978819;28;20026;-95
2021/03/15 05:43:50;;;;;;;3.25;2.30;;;7.30;81.40;;;;;;4994949;28;20014;-96
2021/03/15 05:46:39;;;;;;;5.03;2.47;;;7.40;81.40;;;;;;4997920;28;20531;-96
2021/03/15 05:49:39;;;;;;;4.25;2.15;;;7.40;81.40;;;;;;4978785;28;20037;-95
2021/03/15 05:52:25;;;;;;;3.60;1.85;;;7.40;81.40;;;;;;4959695;28;20039;-96
2021/03/15 05:55:09;;;;;;;3.80;2.22;;;7.40;81.40;;;;;;4978865;28;20033;-94
2021/03/15 05:58:13;;;;;;;3.10;1.92;;;7.30;82.00;;;;;;4980941;28;20022;-96
2021/03/15 06:01:19;;;;;;;3.28;1.80;;;7.30;81.30;;;;;;5009975;28;20054;-96
2021/03/15 06:04:25;;;;;;;4.25;2.50;;;7.30;81.30;;;;;;4990319;28;20111;-96
2021/03/15 06:06:53;;;;;;;5.15;2.30;;;7.30;81.30;;;;;;5017950;28;20042;-95
2021/03/15 06:09:20;;;;;;;3.08;2.20;;;7.30;81.30;;;;;;4966561;28;20074;-95
2021/03/15 06:29:57;;;;;;;5.22;2.33;;;7.30;81.20;;;;;;2543979;23;20298;-87
2021/03/15 06:32:27;;;;;;;3.30;1.58;;;7.30;81.20;;;;;;4980053;28;20041;-96
2021/03/15 06:34:54;;;;;;;5.57;2.47;;;7.30;81.30;;;;;;5035104;23;20534;-94
2021/03/15 06:37:20;;;;;;;6.13;1.85;;;7.30;81.30;;;;;;4980699;28;20042;-93
2021/03/15 06:39:48;;;;;;;5.53;1.90;;;7.30;81.30;;;;;;4985783;28;20026;-90
2021/03/15 06:42:16;;;;;;;4.35;2.13;;;7.30;81.10;;;;;;4986297;28;20473;-90
2021/03/15 06:44:42;;;;;;;6.03;2.42;;;7.40;81.10;;;;;;4991361;28;20042;-91
2021/03/15 06:47:09;;;;;;;4.68;2.15;;;7.40;81.10;;;;;;4992954;28;20109;-90
2021/03/15 06:49:35;;;;;;;6.13;2.92;;;7.40;81.20;;;;;;4984002;28;20026;-91
2021/03/15 06:52:07;;;;;;;3.97;1.83;;;7.40;81.10;;;;;;4991202;28;20030;-91
2021/03/15 06:54:34;;;;;;;4.38;2.00;;;7.40;81.20;;;;;;4999641;28;20026;-91
2021/03/15 06:57:20;;;;;;;4.85;2.50;;;7.50;81.20;;;;;;4999484;28;20030;-90
2021/03/15 06:59:52;;;;;;;6.50;2.50;;;7.40;81.10;;;;;;4999777;28;20109;-87
2021/03/15 07:02:22;;;;;;;4.80;2.10;;;7.40;81.20;;;;;;4993079;28;20110;-91
2021/03/15 07:04:49;;;;;;;3.30;1.60;;;7.50;81.30;;;;;;4991135;28;20030;-90
2021/03/15 07:07:26;;;;;;;4.35;2.10;;;7.50;81.20;;;;;;4980103;28;20030;-90
2021/03/15 07:09:52;;;;;;;4.88;2.00;;;7.50;81.20;;;;;;4979859;28;20049;-89
2021/03/15 07:12:19;;;;;;;6.60;2.20;;;7.50;81.30;;;;;;4990320;28;20023;-87
2021/03/15 07:14:46;;;;;;;7.20;3.10;;;7.50;81.30;;;;;;4992732;28;20022;-89
2021/03/15 07:17:28;;;;;;;7.85;2.72;;;7.50;81.30;;;;;;4991660;28;20027;-89
2021/03/15 07:19:57;;;;;;;6.22;2.20;;;7.50;81.30;;;;;;4992690;28;20037;-90
2021/03/15 07:22:29;;;;;;;6.32;2.30;;;7.50;81.30;;;;;;4992646;28;20077;-90
2021/03/15 07:25:13;;;;;;;5.53;2.30;;;7.50;81.30;;;;;;4984279;28;20046;-89
2021/03/15 07:27:43;;;;;;;7.28;2.20;;;7.50;81.30;;;;;;4992075;28;20180;-91
2021/03/15 07:30:34;;;;;;;5.25;2.17;;;7.50;81.40;;;;;;4992683;28;20025;-93
2021/03/15 07:33:12;;;;;;;12.77;2.78;;;7.60;81.50;;;;;;4977042;28;20022;-93
2021/03/15 07:35:38;;;;;;;7.60;2.70;;;7.50;81.50;;;;;;4987286;28;20030;-93
2021/03/15 07:38:05;;;;;;;8.07;2.40;;;7.50;81.60;;;;;;4988532;28;20034;-93
2021/03/15 07:40:42;;;;;;;7.55;2.33;;;7.50;81.60;;;;;;4983214;28;20015;-94
2021/03/15 07:43:26;;;;;;;10.38;2.53;;;7.50;81.70;;;;;;4982668;28;20061;-92
2021/03/15 07:45:51;;;;;;;11.45;2.55;;;7.60;81.80;;;;;;4994816;28;20038;-92
2021/03/15 07:48:24;;;;;;;8.02;2.15;;;7.60;81.60;;;;;;4993316;28;20019;-92
2021/03/15 07:50:54;;;;;;;;;;;7.70;81.40;;;;;;4989791;28;20499;-94
2021/03/15 07:53:41;;;;;;;8.05;1.95;;;7.80;81.00;;;;;;4985217;28;20024;-94
2021/03/15 07:56:11;;;;;;;6.35;2.10;;;7.90;80.90;;;;;;4989433;28;20055;-95
2021/03/15 07:58:42;;;;;;;6.25;1.65;;;7.90;80.70;;;;;;4992047;28;20109;-93
2021/03/15 08:01:10;;;;;;;8.30;1.90;;;8.00;81.20;;;;;;4987321;28;20507;-94
2021/03/15 08:03:38;;;;;;;11.35;2.58;;;8.20;80.40;;;;;;4986882;28;20105;-96
2021/03/15 08:06:04;;;;;;;6.45;1.70;;;8.30;80.10;;;;;;4990568;28;20027;-91
2021/03/15 08:08:30;;;;;;;9.25;2.20;;;8.40;79.90;;;;;;4993602;28;20261;-90
2021/03/15 08:10:57;;;;;;;8.70;2.00;;;8.50;79.60;;;;;;4997181;28;20030;-92
2021/03/15 08:13:28;;;;;;;6.60;2.15;;;8.50;79.20;;;;;;4994386;28;20029;-92
2021/03/15 08:15:59;;;;;;;7.13;2.28;;;8.50;79.10;;;;;;4994959;28;20038;-90
2021/03/15 08:18:27;;;;;;;6.63;1.65;;;8.40;79.00;;;;;;4992632;28;20477;-89
2021/03/15 08:21:00;;;;;;;8.05;1.88;;;8.50;79.00;;;;;;4987878;28;20805;-95
2021/03/15 08:23:28;;;;;;;10.30;2.15;;;8.50;78.90;;;;;;4984790;28;20035;-92
2021/03/15 08:26:04;;;;;;;9.48;2.40;;;8.50;78.40;;;;;;4988167;28;20497;-94
2021/03/15 08:28:32;;;;;;;8.32;1.80;;;8.60;78.40;;;;;;4983742;28;20036;-92
2021/03/15 08:31:22;;;;;;;9.27;1.92;;;8.50;78.30;;;;;;4993580;28;20026;-91
2021/03/15 08:33:48;;;;;;;4.20;1.35;;;8.50;78.20;;;;;;4975854;28;20042;-93
2021/03/15 08:36:15;;;;;;;6.38;1.50;;;8.50;78.20;;;;;;4988239;28;20111;-95
2021/03/15 08:38:40;;;;;;;8.50;1.92;;;8.60;78.00;;;;;;4984397;28;20034;-95
2021/03/15 08:41:10;;;;;;;9.20;1.75;;;8.70;77.70;;;;;;4983533;28;20045;-94
2021/03/15 08:43:44;;;;;;;8.90;1.98;;;8.80;76.90;;;;;;4982010;28;20014;-91
2021/03/15 08:46:11;;;;;;;6.88;1.73;;;8.80;76.40;;;;;;4991965;28;20110;-94
2021/03/15 08:48:39;;;;;;;6.97;2.17;;;8.80;76.00;;;;;;4985696;28;20027;-91
2021/03/15 08:51:11;;;;;;;9.75;1.98;;;8.80;75.70;;;;;;4989681;28;20034;-94
2021/03/15 08:53:39;;;;;;;6.72;1.48;;;8.70;75.30;;;;;;4994971;28;20053;-95
2021/03/15 08:56:11;;;;;;;10.23;1.80;;;8.80;74.90;;;;;;4999687;28;20027;-96
2021/03/15 08:58:48;;;;;;;5.22;1.27;;;8.90;74.90;;;;;;5003180;28;20026;-91
2021/03/15 09:01:16;;;;;;;7.32;1.55;;;9.00;73.90;;;;;;5008864;28;20035;-94
2021/03/15 09:03:55;;;;;;;4.28;1.40;;;9.10;73.20;;;;;;5009231;28;20082;-94
2021/03/15 09:06:37;;;;;;;4.82;1.65;;;9.10;72.60;;;;;;5011359;28;20029;-96
2021/03/15 09:09:25;;;;;;;5.78;1.48;;;9.20;71.50;;;;;;5002037;28;20025;-95
2021/03/15 09:11:52;;;;;;;5.55;1.63;;;9.10;71.20;;;;;;5006391;28;20018;-92
2021/03/15 09:14:20;;;;;;;5.57;1.50;;;9.20;70.80;;;;;;5013584;28;20022;-94
2021/03/15 09:16:48;;;;;;;5.13;1.30;;;9.20;70.70;;;;;;5016813;28;20014;-95
2021/03/15 09:19:23;;;;;;;7.78;1.90;;;9.30;70.50;;;;;;5011924;28;20010;-95
2021/03/15 09:21:54;;;;;;;8.07;1.55;;;9.30;70.00;;;;;;5012564;28;20026;-96
2021/03/15 09:24:38;;;;;;;5.50;1.35;;;9.30;69.70;;;;;;5008704;28;20104;-94
2021/03/15 09:27:06;;;;;;;7.95;1.83;;;9.20;69.70;;;;;;5012159;28;20014;-96
2021/03/15 09:29:38;;;;;;;8.07;1.95;;;9.20;69.60;;;;;;5099204;23;20047;-96
2021/03/15 09:32:05;;;;;;;6.30;1.58;;;9.10;69.60;;;;;;5242050;23;21150;-95
2021/03/15 09:39:44;;;;;;;6.55;1.40;;;9.00;69.20;;;;;;5912252;23;21060;-96
2021/03/15 09:42:10;;;;;;;4.25;1.20;;;9.10;69.30;;;;;;4992751;28;20039;-96
2021/03/15 09:47:23;;;;;;;5.68;1.67;;;9.30;69.00;;;;;;5180554;23;20050;-95
2021/03/15 09:49:49;;;;;;;3.67;1.20;;;9.40;68.70;;;;;;5017148;23;20042;-93
2021/03/15 09:52:21;;;;;;;4.13;1.30;;;9.30;68.00;;;;;;5073766;23;20086;-96
2021/03/15 09:54:55;;;;;;;4.28;1.25;;;9.20;67.70;;;;;;5008730;23;20069;-95
2021/03/15 09:57:25;;;;;;;4.68;1.20;;;9.10;68.00;;;;;;4993492;28;20037;-96
2021/03/15 10:00:06;;;;;;;5.25;1.30;;;9.00;68.40;;;;;;4996786;28;20057;-96
2021/03/15 10:02:31;;;;;;;6.28;1.48;;;9.10;68.60;;;;;;5201200;23;20043;-96
2021/03/15 10:04:57;;;;;;;5.05;1.50;;;9.10;68.30;;;;;;5266471;23;20042;-96
2021/03/15 10:07:22;;;;;;;5.97;1.67;;;9.20;68.40;;;;;;4986857;28;20046;-96
2021/03/15 10:09:48;;;;;;;7.15;1.35;;;9.10;68.00;;;;;;4992182;28;20081;-96
2021/03/15 10:12:16;;;;;;;4.88;1.40;;;9.10;68.30;;;;;;4977255;28;20043;-95
2021/03/15 10:14:42;;;;;;;5.25;1.25;;;9.20;68.40;;;;;;4978039;28;20043;-95
2021/03/15 10:17:08;;;;;;;4.70;1.50;;;9.20;68.70;;;;;;4979823;28;20015;-96
2021/03/15 10:19:34;;;;;;;5.70;1.50;;;9.30;68.60;;;;;;4974946;28;20046;-93
2021/03/15 10:22:14;;;;;;;5.85;1.63;;;9.40;68.60;;;;;;4969996;28;20023;-96
2021/03/15 10:24:41;;;;;;;4.28;1.38;;;9.40;68.30;;;;;;4974634;28;20089;-96
2021/03/15 10:27:14;;;;;;;5.47;1.27;;;9.40;68.00;;;;;;4990008;28;20030;-96
2021/03/15 10:29:39;;;;;;;4.65;1.45;;;9.60;67.90;;;;;;5064748;23;20518;-93
2021/03/15 10:32:08;;;;;;;5.57;1.60;;;9.70;67.60;;;;;;4980370;28;20073;-95
2021/03/15 10:34:35;;;;;;;3.55;1.20;;;9.70;67.00;;;;;;4994066;23;20497;-94
2021/03/15 10:37:03;;;;;;;9.52;1.80;;;9.70;66.70;;;;;;5001440;23;20862;-95
2021/03/15 10:39:29;;;;;;;5.35;1.30;;;9.70;66.80;;;;;;4979989;28;20482;-95
2021/03/15 10:41:55;;;;;;;7.28;1.85;;;9.70;67.00;;;;;;4984927;28;20038;-96
2021/03/15 10:49:32;;;;;;;6.05;1.50;;;9.80;67.60;;;;;;5466599;23;20052;-96
2021/03/15 10:51:58;;;;;;;6.50;1.55;;;9.80;67.50;;;;;;4932269;29;20035;-96
2021/03/15 10:54:29;;;;;;;3.58;1.35;;;9.70;67.40;;;;;;4963445;28;20028;-94
2021/03/15 10:57:16;;;;;;;5.97;1.35;;;9.70;67.80;;;;;;4958494;29;20071;-96
2021/03/15 10:59:43;;;;;;;5.60;1.63;;;9.80;68.20;;;;;;4948132;29;20031;-96
2021/03/15 11:02:09;;;;;;;6.18;1.80;;;9.90;68.20;;;;;;4976158;28;20019;-96
2021/03/15 11:04:40;;;;;;;5.68;1.73;;;9.70;68.10;;;;;;4965755;29;20031;-96
2021/03/15 11:07:20;;;;;;;6.10;1.50;;;9.80;68.60;;;;;;4956574;29;20028;-96
2021/03/15 11:09:57;;;;;;;5.85;1.83;;;9.90;68.40;;;;;;4964100;28;20035;-96
2021/03/15 11:12:37;;;;;;;4.50;1.33;;;9.90;68.20;;;;;;4956390;28;20031;-96
2021/03/15 11:15:20;;;;;;;5.57;1.65;;;10.10;68.30;;;;;;4962640;28;20023;-96
2021/03/15 11:18:05;;;;;;;4.78;1.25;;;10.00;67.70;;;;;;4964823;28;20497;-95
2021/03/15 11:20:45;;;;;;;4.45;1.42;;;9.90;67.10;;;;;;4959348;28;20482;-96
2021/03/15 11:23:12;;;;;;;3.50;1.30;;;9.90;66.70;;;;;;4973936;28;20022;-96
2021/03/15 11:25:38;;;;;;;2.70;1.27;;;9.80;66.90;;;;;;4962791;28;20077;-94
2021/03/15 11:28:12;;;;;;;4.93;1.27;;;9.70;67.20;;;;;;4967008;29;20467;-95
2021/03/15 11:33:10;;;;;;;5.63;1.40;;;9.30;68.70;;;;;;5002836;28;20030;-96
2021/03/15 11:35:37;;;;;;;4.72;1.40;;;9.10;69.90;;;;;;5112545;23;20098;-95
2021/03/15 11:41:15;;;;;;;5.65;1.38;;;8.80;71.60;;;;;;5294255;23;20074;-96
2021/03/15 11:43:43;;;;;;;5.50;1.25;;;8.80;72.30;;;;;;5073491;23;20134;-95
2021/03/15 11:46:09;;;;;;;6.47;1.55;;;8.90;72.70;;;;;;5213769;23;21073;-95
2021/03/15 11:48:35;;;;;;;5.55;1.20;;;8.90;73.20;;;;;;4994488;28;20046;-96
2021/03/15 11:51:06;;;;;;;6.68;1.60;;;9.00;73.20;;;;;;4998687;28;20039;-96
2021/03/15 11:53:33;;;;;;;3.65;1.25;;;9.10;73.40;;;;;;4980429;28;20096;-96
2021/03/15 11:58:35;;;;;;;6.10;1.60;;;9.10;73.70;;;;;;5063263;23;20062;-96
2021/03/15 12:01:10;;;;;;;6.82;1.60;;;9.10;74.10;;;;;;4978114;28;20094;-96
2021/03/15 12:03:36;;;;;;;6.13;1.77;;;9.00;74.50;;;;;;4982235;28;20112;-96
2021/03/15 12:06:03;;;;;;;6.78;1.98;;;9.00;74.80;;;;;;4990923;28;20046;-96
2021/03/15 12:08:29;;;;;;;8.43;2.15;;;9.00;75.00;;;;;;4991801;28;20114;-96
2021/03/15 12:10:55;;;;;;;8.00;2.08;;;9.00;75.20;;;;;;4985665;28;20038;-96
2021/03/15 12:13:21;;;;;;;7.72;1.58;;;9.00;75.40;;;;;;4981760;28;20046;-96
2021/03/15 12:16:00;;;;;;;9.93;1.95;;;9.10;75.50;;;;;;4983212;28;20031;-95
2021/03/15 12:18:28;;;;;;;7.22;1.80;;;9.30;75.30;;;;;;4986725;28;20038;-96
2021/03/15 12:20:54;;;;;;;8.43;2.15;;;9.50;74.70;;;;;;4984455;28;20050;-95
2021/03/15 12:23:36;;;;;;;7.72;1.80;;;9.60;74.20;;;;;;4985430;28;20457;-96
2021/03/15 12:28:53;;;;;;;8.38;1.90;;;9.40;74.10;;;;;;5130197;23;20319;-96
2021/03/15 12:31:28;;;;;;;8.40;2.13;;;9.40;73.70;;;;;;4978035;28;20489;-94
2021/03/15 12:33:54;;;;;;;7.95;1.67;;;9.40;73.90;;;;;;4969974;28;20026;-90
2021/03/15 12:36:19;;;;;;;8.43;1.73;;;9.40;73.60;;;;;;4975257;28;20441;-91
2021/03/15 12:38:45;;;;;;;6.20;1.67;;;9.60;73.50;;;;;;4978825;28;20038;-91
2021/03/15 12:41:11;;;;;;;3.42;1.20;;;9.80;72.90;;;;;;4974526;28;20024;-88
2021/03/15 12:43:37;;;;;;;6.30;1.90;;;9.90;72.40;;;;;;4977653;28;20091;-89
2021/03/15 12:46:03;;;;;;;8.60;1.75;;;9.80;71.30;;;;;;4978816;28;20031;-91
2021/03/15 12:48:29;;;;;;;5.63;1.50;;;9.60;71.70;;;;;;4977374;28;20061;-92
2021/03/15 12:50:54;;;;;;;4.75;1.30;;;9.40;72.50;;;;;;4978145;28;20050;-96
2021/03/15 12:53:20;;;;;;;5.95;1.40;;;9.30;73.00;;;;;;4978628;28;20034;-95
2021/03/15 12:55:48;;;;;;;3.80;1.05;;;9.20;73.60;;;;;;4978100;28;20053;-96
2021/03/15 12:58:15;;;;;;;7.13;1.42;;;9.20;74.20;;;;;;4973006;28;20470;-95
2021/03/15 13:00:41;;;;;;;5.32;1.50;;;9.20;74.30;;;;;;4975334;28;20046;-95
2021/03/15 13:03:06;;;;;;;6.68;1.40;;;9.20;74.30;;;;;;4975790;28;20150;-93
2021/03/15 13:05:34;;;;;;;4.50;1.30;;;9.10;74.40;;;;;;4975144;28;20065;-94
2021/03/15 13:08:00;;;;;;;5.43;1.15;;;9.10;74.50;;;;;;4965825;28;20035;-92
2021/03/15 13:10:33;;;;;;;4.55;1.30;;;9.10;74.70;;;;;;4969650;28;20034;-92
2021/03/15 13:12:58;;;;;;;3.20;1.17;;;9.20;74.90;;;;;;4971798;28;20034;-92
2021/03/15 13:15:24;;;;;;;6.10;1.30;;;9.30;74.70;;;;;;4967877;28;20023;-93
2021/03/15 13:17:52;;;;;;;5.90;1.30;;;9.40;74.40;;;;;;4959078;28;20401;-92
2021/03/15 13:20:18;;;;;;;5.15;1.40;;;9.50;74.00;;;;;;4969206;28;20617;-92
2021/03/15 13:22:43;;;;;;;6.07;1.40;;;9.70;74.00;;;;;;4967630;28;20129;-91
2021/03/15 13:25:09;;;;;;;5.65;1.25;;;9.80;73.80;;;;;;4973781;28;20497;-92
2021/03/15 13:27:35;;;;;;;4.32;1.20;;;9.90;73.10;;;;;;4971867;28;20046;-96
2021/03/15 13:30:01;;;;;;;4.68;1.10;;;10.10;73.10;;;;;;4969608;28;20035;-96
2021/03/15 13:32:26;;;;;;;5.05;1.50;;;10.20;72.50;;;;;;4972278;28;20094;-94
2021/03/15 13:34:52;;;;;;;5.70;1.48;;;10.40;72.30;;;;;;4985703;28;20033;-93
2021/03/15 13:37:17;;;;;;;8.77;2.25;;;10.50;71.80;;;;;;4974975;28;20023;-96
2021/03/15 13:39:44;;;;;;;9.50;2.10;;;10.60;70.90;;;;;;4975565;28;20027;-93
2021/03/15 13:42:10;;;;;;;7.97;1.88;;;10.50;70.50;;;;;;4968028;28;20030;-96
2021/03/15 13:44:35;;;;;;;8.38;1.83;;;10.30;69.90;;;;;;4984021;28;20046;-96
2021/03/15 13:47:20;;;;;;;5.32;1.50;;;10.20;70.00;;;;;;4982066;28;20018;-96
2021/03/15 13:49:46;;;;;;;9.43;2.10;;;10.10;70.40;;;;;;4972634;28;20030;-90
2021/03/15 13:52:12;;;;;;;9.45;1.88;;;10.00;70.20;;;;;;4974053;28;20117;-93
2021/03/15 13:54:37;;;;;;;7.93;2.00;;;10.00;70.10;;;;;;4966783;28;20126;-95
2021/03/15 13:57:03;;;;;;;7.55;1.88;;;10.00;70.20;;;;;;4965804;28;20041;-91
2021/03/15 13:59:29;;;;;;;7.97;2.00;;;10.20;70.30;;;;;;4968974;28;20127;-94
2021/03/15 14:01:54;;;;;;;7.57;1.70;;;10.20;69.60;;;;;;4979719;28;20029;-94
2021/03/15 14:04:25;;;;;;;8.20;1.80;;;10.10;69.10;;;;;;4972506;28;20027;-92
2021/03/15 14:06:51;;;;;;;8.15;2.05;;;10.10;69.50;;;;;;4974357;28;20015;-96
2021/03/15 14:09:16;;;;;;;7.57;1.70;;;10.10;69.80;;;;;;4973788;28;20070;-92
2021/03/15 14:11:42;;;;;;;8.40;2.10;;;10.10;69.60;;;;;;4967412;28;20074;-95
2021/03/15 14:14:08;;;;;;;8.27;2.13;;;9.90;69.60;;;;;;4970332;28;20057;-94
2021/03/15 14:16:34;;;;;;;6.65;1.50;;;9.80;70.10;;;;;;4972165;28;20026;-95
2021/03/15 14:19:01;;;;;;;11.07;2.40;;;9.80;70.50;;;;;;4970657;28;20023;-93
2021/03/15 14:21:27;;;;;;;8.30;2.00;;;9.80;70.50;;;;;;4969055;28;20023;-93
2021/03/15 14:23:52;;;;;;;12.27;2.28;;;9.80;71.20;;;;;;4972505;28;20101;-93